PAKT Airport Information

Runway Information
Runway 11 Length 7500 ft width 150 ft
Elevation 82 ft Threshold 0 ft Heading 136
Runway 29 Length 7500 ft Width 150 ft
Elevation 89 ft Threshold 0 ft Heading 316
Runway ESE Length 9500 ft width 1500 ft
Elevation 0 ft Threshold 0 ft Heading 0
Runway WNW Length 9500 ft Width 1500 ft
Elevation 0 ft Threshold 0 ft Heading 0
Airport Frequencies
Type ATIS Name ATIS Frequency 119.9 MHZ
Type CNTR Name ANCHORAGE Frequency 118.5 MHZ
Type CTAF Name CTAF Frequency 123.6 MHZ
Type FSS Name RDO Frequency 123.6 MHZ
Type UNIC Name UNICOM Frequency 122.95 MHZ
Airport Navaids
Type NDB Name Clam Cove Frequency 396 KHZ
Airport Weather Information & NOTAM
ADDS - METARS form results

(0904 UTC 23 January 2022)
Data provider http://aviationweather.gov/metar/data/
 
METAR text: PAKT 230853Z AUTO 13014KT 2 1/2SM -RA BR BKN006 OVC012 06/06 A3027 RMK AO2 SLP251 P0001 60020 T00610056 400610056 51014 TSNO
Conditions at: PAKT (KETCHIKAN , AK, US) observed 0853 UTC 23 January 2022
Temperature: 6.1°C (43°F)
Dewpoint: 5.6°C (42°F) [RH = 97%]
Pressure (altimeter): 30.27 inches Hg (1025.1 mb)
[Sea-level pressure: 1025.1 mb]
Winds: from the SE (130 degrees) at 16 MPH (14 knots; 7.2 m/s)
Visibility: 2.50 miles (4.02 km)
Ceiling: 600 feet AGL
Clouds: broken clouds at 600 feet AGL
overcast cloud deck at 1200 feet AGL
Weather: -RA BR  (light rain, mist)

METAR text: PAKT 230843Z AUTO 13014KT 2 1/2SM -RA BR BKN006 OVC014 06/06 A3027 RMK AO2 P0001 T00610056 TSNO
Conditions at: PAKT (KETCHIKAN , AK, US) observed 0843 UTC 23 January 2022
Temperature: 6.1°C (43°F)
Dewpoint: 5.6°C (42°F) [RH = 97%]
Pressure (altimeter): 30.27 inches Hg (1025.1 mb)
Winds: from the SE (130 degrees) at 16 MPH (14 knots; 7.2 m/s)
Visibility: 2.50 miles (4.02 km)
Ceiling: 600 feet AGL
Clouds: broken clouds at 600 feet AGL
overcast cloud deck at 1400 feet AGL
Weather: -RA BR  (light rain, mist)

METAR text: PAKT 230830Z AUTO 13013KT 2 1/2SM -RA BR SCT006 OVC014 06/06 A3027 RMK AO2 P0000 T00610056 TSNO
Conditions at: PAKT (KETCHIKAN , AK, US) observed 0830 UTC 23 January 2022
Temperature: 6.1°C (43°F)
Dewpoint: 5.6°C (42°F) [RH = 97%]
Pressure (altimeter): 30.27 inches Hg (1025.1 mb)
Winds: from the SE (130 degrees) at 15 MPH (13 knots; 6.7 m/s)
Visibility: 2.50 miles (4.02 km)
Ceiling: 1400 feet AGL
Clouds: scattered clouds at 600 feet AGL
overcast cloud deck at 1400 feet AGL
Weather: -RA BR  (light rain, mist)

METAR text: PAKT 230818Z AUTO 13013KT 3SM -RA BR FEW009 OVC014 06/05 A3027 RMK AO2 P0000 T00610050 TSNO
Conditions at: PAKT (KETCHIKAN , AK, US) observed 0818 UTC 23 January 2022
Temperature: 6.1°C (43°F)
Dewpoint: 5.0°C (41°F) [RH = 93%]
Pressure (altimeter): 30.27 inches Hg (1025.1 mb)
Winds: from the SE (130 degrees) at 15 MPH (13 knots; 6.7 m/s)
Visibility: 3 miles ( 5 km)
Ceiling: 1400 feet AGL
Clouds: few clouds at 900 feet AGL
overcast cloud deck at 1400 feet AGL
Weather: -RA BR  (light rain, mist)

METAR text: PAKT 230811Z AUTO 13014G20KT 4SM -RA BR BKN009 OVC014 06/05 A3027 RMK AO2 CIG 007V012 P0000 T00610050 TSNO
Conditions at: PAKT (KETCHIKAN , AK, US) observed 0811 UTC 23 January 2022
Temperature: 6.1°C (43°F)
Dewpoint: 5.0°C (41°F) [RH = 93%]
Pressure (altimeter): 30.27 inches Hg (1025.1 mb)
Winds: from the SE (130 degrees) at 16 MPH (14 knots; 7.2 m/s)
gusting to 23 MPH (20 knots; 10.3 m/s)
Visibility: 4 miles ( 6 km)
Ceiling: 900 feet AGL
Clouds: broken clouds at 900 feet AGL
overcast cloud deck at 1400 feet AGL
Weather: -RA BR  (light rain, mist)

Forecast for: PAKT (KETCHIKAN , AK, US)
Text: PAKT 230547Z 2306/2406 14015G25KT 4SM -RA BR BKN010 OVC015 WS020/17035KT
Forecast period: 0600 to 1800 UTC 23 January 2022
Forecast type: FROM: standard forecast or significant change
Winds: from the SE (140 degrees) at 17 MPH (15 knots; 7.7 m/s)
gusting to 29 MPH (25 knots; 12.9 m/s)
Visibility: 4 miles (6 km)
Ceiling: 1000 feet AGL
Clouds: broken clouds at 1000 feet AGL
overcast cloud deck at 1500 feet AGL
Wind Shear: at 2000 feet ( 610 m) AGL, from the S (170 degrees) at 40 MPH (35 knots; 18.2 m/s)
Weather: -RA BR  (light rain, mist)
Text: TEMPO 2306/2310 2SM RA BR OVC006
Forecast period: 0600 to 1000 UTC 23 January 2022
Forecast type: TEMPORARY: The following changes expected for less than half the time period
Visibility: 2.00 miles (3.22 km)
Ceiling: 600 feet AGL
Clouds: overcast cloud deck at 600 feet AGL
Weather: RA BR  (moderate rain, mist)
Text: FM231800 15007KT 6SM BR OVC015 AMD LTD TO CLD VIS AND WIND 2306/2315
Forecast period: 1800 UTC 23 January 2022 to 0600 UTC 24 January 2022
Forecast type: FROM: standard forecast or significant change
Winds: from the SSE (150 degrees) at 8 MPH (7 knots; 3.6 m/s)
Visibility: 6 miles (10 km)
Ceiling: 1500 feet AGL
Clouds: overcast cloud deck at 1500 feet AGL
Weather: BR  (mist)